sensor_id;sensor_type;location;lat;lon;timestamp;P1;durP1;ratioP1;P2;durP2;ratioP2
22922;SDS011;11627;51.322;22.816;2022-12-18T00:02:15;54.33;;;17.92;;
22922;SDS011;11627;51.322;22.816;2022-12-18T00:04:41;69.30;;;19.40;;
22922;SDS011;11627;51.322;22.816;2022-12-18T00:07:06;64.43;;;19.58;;
22922;SDS011;11627;51.322;22.816;2022-12-18T00:09:32;53.70;;;17.42;;
22922;SDS011;11627;51.322;22.816;2022-12-18T00:11:59;35.63;;;12.23;;
22922;SDS011;11627;51.322;22.816;2022-12-18T00:14:25;53.88;;;16.33;;
22922;SDS011;11627;51.322;22.816;2022-12-18T00:16:50;42.25;;;14.23;;
22922;SDS011;11627;51.322;22.816;2022-12-18T00:19:16;41.45;;;14.15;;
22922;SDS011;11627;51.322;22.816;2022-12-18T00:21:42;13.75;;;6.32;;
22922;SDS011;11627;51.322;22.816;2022-12-18T00:24:09;49.88;;;15.35;;
22922;SDS011;11627;51.322;22.816;2022-12-18T00:26:37;46.63;;;15.73;;
22922;SDS011;11627;51.322;22.816;2022-12-18T00:29:05;31.00;;;10.18;;
22922;SDS011;11627;51.322;22.816;2022-12-18T00:31:40;52.80;;;16.83;;
22922;SDS011;11627;51.322;22.816;2022-12-18T00:34:11;34.15;;;11.38;;
22922;SDS011;11627;51.322;22.816;2022-12-18T00:36:39;35.20;;;11.65;;
22922;SDS011;11627;51.322;22.816;2022-12-18T00:39:05;51.63;;;16.27;;
22922;SDS011;11627;51.322;22.816;2022-12-18T00:41:32;47.15;;;15.82;;
22922;SDS011;11627;51.322;22.816;2022-12-18T00:44:18;31.17;;;9.52;;
22922;SDS011;11627;51.322;22.816;2022-12-18T00:46:45;36.05;;;10.43;;
22922;SDS011;11627;51.322;22.816;2022-12-18T00:49:13;62.00;;;18.42;;
22922;SDS011;11627;51.322;22.816;2022-12-18T00:51:40;34.45;;;11.55;;
22922;SDS011;11627;51.322;22.816;2022-12-18T00:54:06;27.83;;;8.98;;
22922;SDS011;11627;51.322;22.816;2022-12-18T00:56:32;36.20;;;10.77;;
22922;SDS011;11627;51.322;22.816;2022-12-18T00:58:59;48.95;;;15.35;;
22922;SDS011;11627;51.322;22.816;2022-12-18T01:01:25;46.53;;;15.63;;
22922;SDS011;11627;51.322;22.816;2022-12-18T01:03:50;48.50;;;15.75;;
22922;SDS011;11627;51.322;22.816;2022-12-18T01:06:16;16.92;;;7.07;;
22922;SDS011;11627;51.322;22.816;2022-12-18T01:08:42;33.30;;;10.60;;
22922;SDS011;11627;51.322;22.816;2022-12-18T01:11:09;28.50;;;11.65;;
22922;SDS011;11627;51.322;22.816;2022-12-18T01:13:36;51.25;;;15.07;;
22922;SDS011;11627;51.322;22.816;2022-12-18T01:16:04;55.63;;;15.98;;
22922;SDS011;11627;51.322;22.816;2022-12-18T01:18:30;41.28;;;15.00;;
22922;SDS011;11627;51.322;22.816;2022-12-18T01:20:56;16.60;;;5.65;;
22922;SDS011;11627;51.322;22.816;2022-12-18T01:23:21;30.17;;;10.75;;
22922;SDS011;11627;51.322;22.816;2022-12-18T01:25:47;49.83;;;15.93;;
22922;SDS011;11627;51.322;22.816;2022-12-18T01:28:13;50.45;;;16.75;;
22922;SDS011;11627;51.322;22.816;2022-12-18T01:30:40;8.20;;;4.25;;
22922;SDS011;11627;51.322;22.816;2022-12-18T01:33:05;27.45;;;10.93;;
22922;SDS011;11627;51.322;22.816;2022-12-18T01:35:31;51.42;;;15.10;;
22922;SDS011;11627;51.322;22.816;2022-12-18T01:37:56;46.92;;;11.63;;
22922;SDS011;11627;51.322;22.816;2022-12-18T01:40:22;26.00;;;8.82;;
22922;SDS011;11627;51.322;22.816;2022-12-18T01:42:51;49.25;;;14.73;;
22922;SDS011;11627;51.322;22.816;2022-12-18T01:47:56;46.90;;;13.52;;
22922;SDS011;11627;51.322;22.816;2022-12-18T01:50:28;45.80;;;13.82;;
22922;SDS011;11627;51.322;22.816;2022-12-18T01:55:20;18.15;;;8.70;;
22922;SDS011;11627;51.322;22.816;2022-12-18T01:57:49;21.02;;;7.72;;
22922;SDS011;11627;51.322;22.816;2022-12-18T02:00:18;47.08;;;15.45;;
22922;SDS011;11627;51.322;22.816;2022-12-18T02:02:45;30.42;;;11.85;;
22922;SDS011;11627;51.322;22.816;2022-12-18T02:05:12;32.13;;;9.77;;
22922;SDS011;11627;51.322;22.816;2022-12-18T02:18:36;43.53;;;14.70;;
22922;SDS011;11627;51.322;22.816;2022-12-18T02:23:56;56.60;;;17.08;;
22922;SDS011;11627;51.322;22.816;2022-12-18T02:28:58;54.80;;;14.88;;
22922;SDS011;11627;51.322;22.816;2022-12-18T02:31:30;46.65;;;14.30;;
22922;SDS011;11627;51.322;22.816;2022-12-18T02:34:02;43.78;;;12.80;;
22922;SDS011;11627;51.322;22.816;2022-12-18T02:36:30;15.35;;;7.40;;
22922;SDS011;11627;51.322;22.816;2022-12-18T02:38:57;58.45;;;16.77;;
22922;SDS011;11627;51.322;22.816;2022-12-18T02:41:24;56.90;;;17.40;;
22922;SDS011;11627;51.322;22.816;2022-12-18T02:43:58;54.88;;;15.10;;
22922;SDS011;11627;51.322;22.816;2022-12-18T02:46:45;26.88;;;7.28;;
22922;SDS011;11627;51.322;22.816;2022-12-18T02:52:24;39.78;;;10.57;;
22922;SDS011;11627;51.322;22.816;2022-12-18T02:55:10;24.52;;;10.13;;
22922;SDS011;11627;51.322;22.816;2022-12-18T03:00:48;53.38;;;16.02;;
22922;SDS011;11627;51.322;22.816;2022-12-18T03:03:44;22.95;;;8.95;;
22922;SDS011;11627;51.322;22.816;2022-12-18T03:08:51;34.97;;;12.07;;
22922;SDS011;11627;51.322;22.816;2022-12-18T03:11:23;53.38;;;15.68;;
22922;SDS011;11627;51.322;22.816;2022-12-18T03:14:11;26.33;;;14.55;;
22922;SDS011;11627;51.322;22.816;2022-12-18T03:16:40;61.92;;;17.85;;
22922;SDS011;11627;51.322;22.816;2022-12-18T03:19:08;55.90;;;17.30;;
22922;SDS011;11627;51.322;22.816;2022-12-18T03:21:51;47.75;;;14.23;;
22922;SDS011;11627;51.322;22.816;2022-12-18T03:24:21;47.50;;;17.63;;
22922;SDS011;11627;51.322;22.816;2022-12-18T03:26:52;55.20;;;17.20;;
22922;SDS011;11627;51.322;22.816;2022-12-18T03:29:22;60.00;;;17.15;;
22922;SDS011;11627;51.322;22.816;2022-12-18T03:31:54;59.03;;;16.15;;
22922;SDS011;11627;51.322;22.816;2022-12-18T03:34:26;31.45;;;11.38;;
22922;SDS011;11627;51.322;22.816;2022-12-18T03:36:55;27.50;;;9.57;;
22922;SDS011;11627;51.322;22.816;2022-12-18T03:39:21;63.85;;;18.10;;
22922;SDS011;11627;51.322;22.816;2022-12-18T03:41:51;50.10;;;16.23;;
22922;SDS011;11627;51.322;22.816;2022-12-18T03:47:28;76.30;;;20.40;;
22922;SDS011;11627;51.322;22.816;2022-12-18T03:52:48;66.90;;;19.23;;
22922;SDS011;11627;51.322;22.816;2022-12-18T03:55:41;70.53;;;17.92;;
22922;SDS011;11627;51.322;22.816;2022-12-18T03:58:08;76.95;;;18.77;;
22922;SDS011;11627;51.322;22.816;2022-12-18T04:00:37;79.30;;;20.92;;
22922;SDS011;11627;51.322;22.816;2022-12-18T04:03:02;83.10;;;21.85;;
22922;SDS011;11627;51.322;22.816;2022-12-18T04:05:30;69.30;;;21.15;;
22922;SDS011;11627;51.322;22.816;2022-12-18T04:08:00;76.63;;;20.70;;
22922;SDS011;11627;51.322;22.816;2022-12-18T04:10:26;64.20;;;18.08;;
22922;SDS011;11627;51.322;22.816;2022-12-18T04:12:55;54.70;;;18.30;;
22922;SDS011;11627;51.322;22.816;2022-12-18T04:15:22;60.83;;;17.08;;
22922;SDS011;11627;51.322;22.816;2022-12-18T04:17:48;33.38;;;9.35;;
22922;SDS011;11627;51.322;22.816;2022-12-18T04:20:15;39.30;;;13.15;;
22922;SDS011;11627;51.322;22.816;2022-12-18T04:22:42;21.63;;;8.73;;
22922;SDS011;11627;51.322;22.816;2022-12-18T04:25:08;12.27;;;6.57;;
22922;SDS011;11627;51.322;22.816;2022-12-18T04:27:34;33.40;;;11.27;;
22922;SDS011;11627;51.322;22.816;2022-12-18T04:29:59;55.72;;;16.70;;
22922;SDS011;11627;51.322;22.816;2022-12-18T04:32:25;20.48;;;7.45;;
22922;SDS011;11627;51.322;22.816;2022-12-18T04:34:51;50.17;;;15.75;;
22922;SDS011;11627;51.322;22.816;2022-12-18T04:37:16;50.85;;;15.55;;
22922;SDS011;11627;51.322;22.816;2022-12-18T04:39:42;40.15;;;14.60;;
22922;SDS011;11627;51.322;22.816;2022-12-18T04:42:09;35.28;;;13.55;;
22922;SDS011;11627;51.322;22.816;2022-12-18T04:44:35;41.58;;;15.93;;
22922;SDS011;11627;51.322;22.816;2022-12-18T04:47:01;38.42;;;14.57;;
22922;SDS011;11627;51.322;22.816;2022-12-18T04:49:27;26.17;;;9.40;;
22922;SDS011;11627;51.322;22.816;2022-12-18T04:51:52;18.10;;;7.35;;
22922;SDS011;11627;51.322;22.816;2022-12-18T04:54:18;41.78;;;11.10;;
22922;SDS011;11627;51.322;22.816;2022-12-18T04:56:44;38.45;;;11.85;;
22922;SDS011;11627;51.322;22.816;2022-12-18T04:59:09;50.58;;;14.52;;
22922;SDS011;11627;51.322;22.816;2022-12-18T05:01:35;36.00;;;13.65;;
22922;SDS011;11627;51.322;22.816;2022-12-18T05:04:01;18.58;;;8.05;;
22922;SDS011;11627;51.322;22.816;2022-12-18T05:06:27;29.40;;;9.88;;
22922;SDS011;11627;51.322;22.816;2022-12-18T05:08:53;35.55;;;13.88;;
22922;SDS011;11627;51.322;22.816;2022-12-18T05:11:18;33.22;;;11.05;;
22922;SDS011;11627;51.322;22.816;2022-12-18T05:13:44;36.15;;;12.85;;
22922;SDS011;11627;51.322;22.816;2022-12-18T05:16:10;33.92;;;12.00;;
22922;SDS011;11627;51.322;22.816;2022-12-18T05:18:37;38.05;;;13.15;;
22922;SDS011;11627;51.322;22.816;2022-12-18T05:21:04;36.50;;;11.80;;
22922;SDS011;11627;51.322;22.816;2022-12-18T05:23:30;30.38;;;11.52;;
22922;SDS011;11627;51.322;22.816;2022-12-18T05:25:57;16.33;;;6.00;;
22922;SDS011;11627;51.322;22.816;2022-12-18T05:28:25;13.00;;;4.55;;
22922;SDS011;11627;51.322;22.816;2022-12-18T05:30:53;11.07;;;5.75;;
22922;SDS011;11627;51.322;22.816;2022-12-18T05:33:21;26.02;;;11.07;;
22922;SDS011;11627;51.322;22.816;2022-12-18T05:35:51;35.13;;;12.82;;
22922;SDS011;11627;51.322;22.816;2022-12-18T05:38:18;34.25;;;13.95;;
22922;SDS011;11627;51.322;22.816;2022-12-18T05:40:45;30.73;;;10.00;;
22922;SDS011;11627;51.322;22.816;2022-12-18T05:43:11;33.65;;;14.10;;
22922;SDS011;11627;51.322;22.816;2022-12-18T05:45:37;27.92;;;10.50;;
22922;SDS011;11627;51.322;22.816;2022-12-18T05:48:03;17.13;;;7.80;;
22922;SDS011;11627;51.322;22.816;2022-12-18T05:50:33;25.15;;;11.15;;
22922;SDS011;11627;51.322;22.816;2022-12-18T05:52:59;36.75;;;12.38;;
22922;SDS011;11627;51.322;22.816;2022-12-18T05:55:25;14.88;;;7.28;;
22922;SDS011;11627;51.322;22.816;2022-12-18T05:57:51;35.15;;;13.27;;
22922;SDS011;11627;51.322;22.816;2022-12-18T06:00:16;39.92;;;13.35;;
22922;SDS011;11627;51.322;22.816;2022-12-18T06:02:45;37.35;;;13.82;;
22922;SDS011;11627;51.322;22.816;2022-12-18T06:05:12;37.40;;;13.52;;
22922;SDS011;11627;51.322;22.816;2022-12-18T06:07:37;37.03;;;12.95;;
22922;SDS011;11627;51.322;22.816;2022-12-18T06:10:03;36.88;;;13.02;;
22922;SDS011;11627;51.322;22.816;2022-12-18T06:12:29;38.13;;;12.90;;
22922;SDS011;11627;51.322;22.816;2022-12-18T06:14:55;28.20;;;10.70;;
22922;SDS011;11627;51.322;22.816;2022-12-18T06:17:22;33.17;;;14.13;;
22922;SDS011;11627;51.322;22.816;2022-12-18T06:19:48;32.90;;;12.93;;
22922;SDS011;11627;51.322;22.816;2022-12-18T06:22:13;34.10;;;13.23;;
22922;SDS011;11627;51.322;22.816;2022-12-18T06:24:40;14.68;;;5.53;;
22922;SDS011;11627;51.322;22.816;2022-12-18T06:27:05;30.13;;;10.00;;
22922;SDS011;11627;51.322;22.816;2022-12-18T06:29:31;38.10;;;13.73;;
22922;SDS011;11627;51.322;22.816;2022-12-18T06:31:56;34.72;;;12.73;;
22922;SDS011;11627;51.322;22.816;2022-12-18T06:34:22;30.08;;;11.30;;
22922;SDS011;11627;51.322;22.816;2022-12-18T06:36:48;38.95;;;13.57;;
22922;SDS011;11627;51.322;22.816;2022-12-18T06:39:13;37.10;;;13.60;;
22922;SDS011;11627;51.322;22.816;2022-12-18T06:41:39;25.83;;;11.60;;
22922;SDS011;11627;51.322;22.816;2022-12-18T06:44:04;32.35;;;12.43;;
22922;SDS011;11627;51.322;22.816;2022-12-18T06:46:30;27.80;;;10.90;;
22922;SDS011;11627;51.322;22.816;2022-12-18T06:48:57;32.40;;;11.82;;
22922;SDS011;11627;51.322;22.816;2022-12-18T06:51:23;28.80;;;10.18;;
22922;SDS011;11627;51.322;22.816;2022-12-18T06:53:49;14.07;;;6.90;;
22922;SDS011;11627;51.322;22.816;2022-12-18T06:56:15;32.70;;;12.50;;
22922;SDS011;11627;51.322;22.816;2022-12-18T06:58:41;34.72;;;12.80;;
22922;SDS011;11627;51.322;22.816;2022-12-18T07:01:08;43.58;;;13.93;;
22922;SDS011;11627;51.322;22.816;2022-12-18T07:03:35;37.33;;;13.40;;
22922;SDS011;11627;51.322;22.816;2022-12-18T07:06:01;38.25;;;14.07;;
22922;SDS011;11627;51.322;22.816;2022-12-18T07:08:28;34.70;;;13.07;;
22922;SDS011;11627;51.322;22.816;2022-12-18T07:10:55;31.45;;;12.20;;
22922;SDS011;11627;51.322;22.816;2022-12-18T07:13:20;35.28;;;12.93;;
22922;SDS011;11627;51.322;22.816;2022-12-18T07:15:47;34.20;;;13.30;;
22922;SDS011;11627;51.322;22.816;2022-12-18T07:18:13;34.58;;;13.32;;
22922;SDS011;11627;51.322;22.816;2022-12-18T07:20:39;34.90;;;13.20;;
22922;SDS011;11627;51.322;22.816;2022-12-18T07:23:06;37.80;;;13.50;;
22922;SDS011;11627;51.322;22.816;2022-12-18T07:25:35;30.98;;;12.43;;
22922;SDS011;11627;51.322;22.816;2022-12-18T07:28:02;32.38;;;11.80;;
22922;SDS011;11627;51.322;22.816;2022-12-18T07:30:30;33.10;;;11.07;;
22922;SDS011;11627;51.322;22.816;2022-12-18T07:32:57;37.25;;;13.25;;
22922;SDS011;11627;51.322;22.816;2022-12-18T07:35:23;34.38;;;12.75;;
22922;SDS011;11627;51.322;22.816;2022-12-18T07:37:48;30.58;;;12.25;;
22922;SDS011;11627;51.322;22.816;2022-12-18T07:40:14;34.03;;;11.52;;
22922;SDS011;11627;51.322;22.816;2022-12-18T07:42:39;32.75;;;12.70;;
22922;SDS011;11627;51.322;22.816;2022-12-18T07:45:05;32.35;;;11.65;;
22922;SDS011;11627;51.322;22.816;2022-12-18T07:47:33;28.67;;;10.77;;
22922;SDS011;11627;51.322;22.816;2022-12-18T07:50:00;33.38;;;12.77;;
22922;SDS011;11627;51.322;22.816;2022-12-18T07:52:26;30.08;;;12.68;;
22922;SDS011;11627;51.322;22.816;2022-12-18T07:54:51;33.28;;;12.77;;
22922;SDS011;11627;51.322;22.816;2022-12-18T07:57:17;29.90;;;10.57;;
22922;SDS011;11627;51.322;22.816;2022-12-18T07:59:43;22.98;;;6.70;;
22922;SDS011;11627;51.322;22.816;2022-12-18T08:02:08;34.42;;;11.38;;
22922;SDS011;11627;51.322;22.816;2022-12-18T08:04:34;29.27;;;10.27;;
22922;SDS011;11627;51.322;22.816;2022-12-18T08:07:01;25.50;;;10.65;;
22922;SDS011;11627;51.322;22.816;2022-12-18T08:09:27;27.30;;;11.25;;
22922;SDS011;11627;51.322;22.816;2022-12-18T08:11:52;26.48;;;11.02;;
22922;SDS011;11627;51.322;22.816;2022-12-18T08:14:19;30.75;;;11.93;;
22922;SDS011;11627;51.322;22.816;2022-12-18T08:16:44;32.53;;;11.88;;
22922;SDS011;11627;51.322;22.816;2022-12-18T08:19:11;35.72;;;12.20;;
22922;SDS011;11627;51.322;22.816;2022-12-18T08:21:37;29.45;;;11.93;;
22922;SDS011;11627;51.322;22.816;2022-12-18T08:24:04;28.95;;;11.35;;
22922;SDS011;11627;51.322;22.816;2022-12-18T08:26:30;29.75;;;10.50;;
22922;SDS011;11627;51.322;22.816;2022-12-18T08:28:57;32.10;;;12.23;;
22922;SDS011;11627;51.322;22.816;2022-12-18T08:31:24;31.58;;;11.68;;
22922;SDS011;11627;51.322;22.816;2022-12-18T08:33:51;27.33;;;10.30;;
22922;SDS011;11627;51.322;22.816;2022-12-18T08:36:19;27.00;;;9.85;;
22922;SDS011;11627;51.322;22.816;2022-12-18T08:38:46;21.00;;;9.32;;
22922;SDS011;11627;51.322;22.816;2022-12-18T08:41:12;23.05;;;9.25;;
22922;SDS011;11627;51.322;22.816;2022-12-18T08:43:41;26.38;;;9.85;;
22922;SDS011;11627;51.322;22.816;2022-12-18T08:46:26;23.13;;;8.23;;
22922;SDS011;11627;51.322;22.816;2022-12-18T08:48:55;22.02;;;8.85;;
22922;SDS011;11627;51.322;22.816;2022-12-18T08:51:21;26.60;;;9.60;;
22922;SDS011;11627;51.322;22.816;2022-12-18T08:53:47;23.83;;;9.52;;
22922;SDS011;11627;51.322;22.816;2022-12-18T08:56:14;20.75;;;8.13;;
22922;SDS011;11627;51.322;22.816;2022-12-18T08:58:40;19.75;;;7.80;;
22922;SDS011;11627;51.322;22.816;2022-12-18T09:01:08;24.50;;;9.20;;
22922;SDS011;11627;51.322;22.816;2022-12-18T09:03:35;25.38;;;9.05;;
22922;SDS011;11627;51.322;22.816;2022-12-18T09:06:01;23.70;;;9.15;;
22922;SDS011;11627;51.322;22.816;2022-12-18T09:08:28;23.05;;;9.52;;
22922;SDS011;11627;51.322;22.816;2022-12-18T09:10:56;25.13;;;9.57;;
22922;SDS011;11627;51.322;22.816;2022-12-18T09:13:21;21.40;;;8.75;;
22922;SDS011;11627;51.322;22.816;2022-12-18T09:15:48;20.30;;;7.75;;
22922;SDS011;11627;51.322;22.816;2022-12-18T09:18:18;24.48;;;9.23;;
22922;SDS011;11627;51.322;22.816;2022-12-18T09:20:48;24.55;;;9.38;;
22922;SDS011;11627;51.322;22.816;2022-12-18T09:23:16;24.95;;;9.57;;
22922;SDS011;11627;51.322;22.816;2022-12-18T09:25:42;20.60;;;8.20;;
22922;SDS011;11627;51.322;22.816;2022-12-18T09:28:14;23.98;;;8.68;;
22922;SDS011;11627;51.322;22.816;2022-12-18T09:30:43;20.10;;;8.00;;
22922;SDS011;11627;51.322;22.816;2022-12-18T09:33:10;22.42;;;8.50;;
22922;SDS011;11627;51.322;22.816;2022-12-18T09:35:36;10.32;;;4.40;;
22922;SDS011;11627;51.322;22.816;2022-12-18T09:38:03;22.70;;;9.98;;
22922;SDS011;11627;51.322;22.816;2022-12-18T09:40:32;12.38;;;4.93;;
22922;SDS011;11627;51.322;22.816;2022-12-18T09:43:03;25.17;;;9.88;;
22922;SDS011;11627;51.322;22.816;2022-12-18T09:45:33;23.63;;;8.90;;
22922;SDS011;11627;51.322;22.816;2022-12-18T09:48:05;24.50;;;9.75;;
22922;SDS011;11627;51.322;22.816;2022-12-18T09:50:41;26.45;;;9.82;;
22922;SDS011;11627;51.322;22.816;2022-12-18T09:53:13;26.27;;;8.82;;
22922;SDS011;11627;51.322;22.816;2022-12-18T09:55:45;11.35;;;5.88;;
22922;SDS011;11627;51.322;22.816;2022-12-18T09:58:27;22.77;;;9.25;;
22922;SDS011;11627;51.322;22.816;2022-12-18T10:01:09;28.42;;;9.73;;
22922;SDS011;11627;51.322;22.816;2022-12-18T10:03:38;21.60;;;8.50;;
22922;SDS011;11627;51.322;22.816;2022-12-18T10:14:49;31.63;;;9.25;;
22922;SDS011;11627;51.322;22.816;2022-12-18T10:20:47;23.90;;;8.68;;
22922;SDS011;11627;51.322;22.816;2022-12-18T10:26:08;22.38;;;8.57;;
22922;SDS011;11627;51.322;22.816;2022-12-18T10:28:36;18.95;;;8.00;;
22922;SDS011;11627;51.322;22.816;2022-12-18T10:31:05;28.08;;;9.48;;
22922;SDS011;11627;51.322;22.816;2022-12-18T10:33:32;24.05;;;9.35;;
22922;SDS011;11627;51.322;22.816;2022-12-18T10:35:59;28.15;;;11.00;;
22922;SDS011;11627;51.322;22.816;2022-12-18T10:38:26;27.98;;;10.30;;
22922;SDS011;11627;51.322;22.816;2022-12-18T10:43:31;24.25;;;10.25;;
22922;SDS011;11627;51.322;22.816;2022-12-18T10:51:30;25.65;;;10.65;;
22922;SDS011;11627;51.322;22.816;2022-12-18T10:54:18;32.65;;;11.93;;
22922;SDS011;11627;51.322;22.816;2022-12-18T10:56:47;21.33;;;8.48;;
22922;SDS011;11627;51.322;22.816;2022-12-18T10:59:14;31.95;;;11.48;;
22922;SDS011;11627;51.322;22.816;2022-12-18T11:04:27;25.35;;;10.27;;
22922;SDS011;11627;51.322;22.816;2022-12-18T11:07:00;20.75;;;9.20;;
22922;SDS011;11627;51.322;22.816;2022-12-18T11:09:31;26.80;;;9.98;;
22922;SDS011;11627;51.322;22.816;2022-12-18T11:12:02;22.50;;;9.07;;
22922;SDS011;11627;51.322;22.816;2022-12-18T11:14:50;28.27;;;10.02;;
22922;SDS011;11627;51.322;22.816;2022-12-18T11:17:30;22.98;;;9.57;;
22922;SDS011;11627;51.322;22.816;2022-12-18T11:20:05;26.70;;;9.73;;
22922;SDS011;11627;51.322;22.816;2022-12-18T11:22:53;32.55;;;11.48;;
22922;SDS011;11627;51.322;22.816;2022-12-18T11:25:27;37.63;;;12.00;;
22922;SDS011;11627;51.322;22.816;2022-12-18T11:27:58;28.25;;;10.38;;
22922;SDS011;11627;51.322;22.816;2022-12-18T11:30:33;28.35;;;11.18;;
22922;SDS011;11627;51.322;22.816;2022-12-18T11:33:19;26.98;;;10.88;;
22922;SDS011;11627;51.322;22.816;2022-12-18T11:38:23;23.60;;;10.10;;
22922;SDS011;11627;51.322;22.816;2022-12-18T11:40:54;20.38;;;8.65;;
22922;SDS011;11627;51.322;22.816;2022-12-18T11:43:27;22.73;;;9.55;;
22922;SDS011;11627;51.322;22.816;2022-12-18T11:45:59;21.05;;;8.27;;
22922;SDS011;11627;51.322;22.816;2022-12-18T11:48:41;23.23;;;8.98;;
22922;SDS011;11627;51.322;22.816;2022-12-18T11:51:18;25.08;;;8.88;;
22922;SDS011;11627;51.322;22.816;2022-12-18T11:53:51;23.77;;;9.23;;
22922;SDS011;11627;51.322;22.816;2022-12-18T11:56:43;21.05;;;8.80;;
22922;SDS011;11627;51.322;22.816;2022-12-18T12:07:27;21.63;;;9.27;;
22922;SDS011;11627;51.322;22.816;2022-12-18T12:13:03;26.10;;;9.80;;
22922;SDS011;11627;51.322;22.816;2022-12-18T12:18:29;23.90;;;9.75;;
22922;SDS011;11627;51.322;22.816;2022-12-18T12:26:40;21.65;;;8.48;;
22922;SDS011;11627;51.322;22.816;2022-12-18T12:40:26;22.33;;;9.30;;
22922;SDS011;11627;51.322;22.816;2022-12-18T12:42:58;21.08;;;8.93;;
22922;SDS011;11627;51.322;22.816;2022-12-18T12:51:04;21.52;;;8.38;;
22922;SDS011;11627;51.322;22.816;2022-12-18T12:53:53;19.45;;;9.02;;
22922;SDS011;11627;51.322;22.816;2022-12-18T12:56:22;19.85;;;8.80;;
22922;SDS011;11627;51.322;22.816;2022-12-18T12:59:02;25.48;;;9.55;;
22922;SDS011;11627;51.322;22.816;2022-12-18T13:04:28;23.13;;;8.77;;
22922;SDS011;11627;51.322;22.816;2022-12-18T13:07:18;17.23;;;6.93;;
22922;SDS011;11627;51.322;22.816;2022-12-18T13:15:33;19.48;;;7.28;;
22922;SDS011;11627;51.322;22.816;2022-12-18T13:18:19;18.30;;;7.65;;
22922;SDS011;11627;51.322;22.816;2022-12-18T13:23:35;20.35;;;7.47;;
22922;SDS011;11627;51.322;22.816;2022-12-18T13:30:59;23.85;;;8.50;;
22922;SDS011;11627;51.322;22.816;2022-12-18T13:38:39;13.98;;;6.97;;
22922;SDS011;11627;51.322;22.816;2022-12-18T13:43:53;20.35;;;7.60;;
22922;SDS011;11627;51.322;22.816;2022-12-18T13:46:44;27.88;;;8.80;;
22922;SDS011;11627;51.322;22.816;2022-12-18T13:51:38;19.33;;;8.93;;
22922;SDS011;11627;51.322;22.816;2022-12-18T13:57:02;17.92;;;7.80;;
22922;SDS011;11627;51.322;22.816;2022-12-18T14:02:15;14.65;;;6.97;;
22922;SDS011;11627;51.322;22.816;2022-12-18T14:04:49;20.50;;;7.80;;
22922;SDS011;11627;51.322;22.816;2022-12-18T14:09:50;23.63;;;8.60;;
22922;SDS011;11627;51.322;22.816;2022-12-18T14:12:20;17.08;;;8.07;;
22922;SDS011;11627;51.322;22.816;2022-12-18T14:15:06;19.58;;;8.57;;
22922;SDS011;11627;51.322;22.816;2022-12-18T14:17:45;19.58;;;8.32;;
22922;SDS011;11627;51.322;22.816;2022-12-18T14:20:14;19.83;;;8.18;;
22922;SDS011;11627;51.322;22.816;2022-12-18T14:22:43;20.10;;;8.95;;
22922;SDS011;11627;51.322;22.816;2022-12-18T14:27:48;22.95;;;9.18;;
22922;SDS011;11627;51.322;22.816;2022-12-18T14:30:23;22.92;;;8.68;;
22922;SDS011;11627;51.322;22.816;2022-12-18T14:35:33;28.83;;;10.75;;
22922;SDS011;11627;51.322;22.816;2022-12-18T14:40:47;18.50;;;8.52;;
22922;SDS011;11627;51.322;22.816;2022-12-18T14:43:17;26.60;;;9.55;;
22922;SDS011;11627;51.322;22.816;2022-12-18T14:45:43;23.45;;;8.35;;
22922;SDS011;11627;51.322;22.816;2022-12-18T14:50:36;18.75;;;8.27;;
22922;SDS011;11627;51.322;22.816;2022-12-18T14:53:02;20.48;;;8.48;;
22922;SDS011;11627;51.322;22.816;2022-12-18T14:55:28;21.85;;;8.07;;
22922;SDS011;11627;51.322;22.816;2022-12-18T14:57:54;19.63;;;8.18;;
22922;SDS011;11627;51.322;22.816;2022-12-18T15:00:22;16.73;;;7.68;;
22922;SDS011;11627;51.322;22.816;2022-12-18T15:02:53;19.35;;;8.38;;
22922;SDS011;11627;51.322;22.816;2022-12-18T15:05:30;24.13;;;9.10;;
22922;SDS011;11627;51.322;22.816;2022-12-18T15:07:57;20.90;;;9.20;;
22922;SDS011;11627;51.322;22.816;2022-12-18T15:10:25;33.40;;;12.35;;
22922;SDS011;11627;51.322;22.816;2022-12-18T15:20:33;22.42;;;8.30;;
22922;SDS011;11627;51.322;22.816;2022-12-18T15:25:47;24.35;;;9.38;;
22922;SDS011;11627;51.322;22.816;2022-12-18T15:28:18;20.88;;;9.07;;
22922;SDS011;11627;51.322;22.816;2022-12-18T15:31:20;20.85;;;9.15;;
22922;SDS011;11627;51.322;22.816;2022-12-18T15:36:18;21.67;;;8.48;;
22922;SDS011;11627;51.322;22.816;2022-12-18T15:38:46;20.13;;;8.48;;
22922;SDS011;11627;51.322;22.816;2022-12-18T15:41:16;22.10;;;8.85;;
22922;SDS011;11627;51.322;22.816;2022-12-18T15:43:44;24.13;;;9.63;;
22922;SDS011;11627;51.322;22.816;2022-12-18T15:46:15;23.27;;;10.52;;
22922;SDS011;11627;51.322;22.816;2022-12-18T15:48:46;21.17;;;9.27;;
22922;SDS011;11627;51.322;22.816;2022-12-18T15:51:15;22.48;;;9.00;;
22922;SDS011;11627;51.322;22.816;2022-12-18T15:53:41;20.70;;;8.68;;
22922;SDS011;11627;51.322;22.816;2022-12-18T15:56:11;27.90;;;9.88;;
22922;SDS011;11627;51.322;22.816;2022-12-18T15:58:56;28.20;;;10.15;;
22922;SDS011;11627;51.322;22.816;2022-12-18T16:01:31;30.88;;;11.65;;
22922;SDS011;11627;51.322;22.816;2022-12-18T16:03:56;23.70;;;9.80;;
22922;SDS011;11627;51.322;22.816;2022-12-18T16:06:22;21.35;;;7.90;;
22922;SDS011;11627;51.322;22.816;2022-12-18T16:08:48;22.92;;;9.10;;
22922;SDS011;11627;51.322;22.816;2022-12-18T16:11:25;22.08;;;8.45;;
22922;SDS011;11627;51.322;22.816;2022-12-18T16:14:05;18.67;;;8.00;;
22922;SDS011;11627;51.322;22.816;2022-12-18T16:16:38;21.70;;;8.77;;
22922;SDS011;11627;51.322;22.816;2022-12-18T16:19:04;22.40;;;8.70;;
22922;SDS011;11627;51.322;22.816;2022-12-18T16:21:32;25.25;;;8.68;;
22922;SDS011;11627;51.322;22.816;2022-12-18T16:23:58;19.77;;;8.70;;
22922;SDS011;11627;51.322;22.816;2022-12-18T16:26:25;22.48;;;9.20;;
22922;SDS011;11627;51.322;22.816;2022-12-18T16:28:50;22.75;;;9.45;;
22922;SDS011;11627;51.322;22.816;2022-12-18T16:31:18;25.02;;;10.27;;
22922;SDS011;11627;51.322;22.816;2022-12-18T16:33:43;28.30;;;11.10;;
22922;SDS011;11627;51.322;22.816;2022-12-18T16:36:09;25.67;;;10.23;;
22922;SDS011;11627;51.322;22.816;2022-12-18T16:38:37;23.52;;;9.45;;
22922;SDS011;11627;51.322;22.816;2022-12-18T16:41:15;24.60;;;10.10;;
22922;SDS011;11627;51.322;22.816;2022-12-18T16:44:05;25.25;;;10.13;;
22922;SDS011;11627;51.322;22.816;2022-12-18T16:46:31;29.55;;;10.18;;
22922;SDS011;11627;51.322;22.816;2022-12-18T16:48:57;27.73;;;10.13;;
22922;SDS011;11627;51.322;22.816;2022-12-18T16:51:32;24.60;;;9.93;;
22922;SDS011;11627;51.322;22.816;2022-12-18T16:54:16;23.27;;;10.52;;
22922;SDS011;11627;51.322;22.816;2022-12-18T16:56:41;26.70;;;10.68;;
22922;SDS011;11627;51.322;22.816;2022-12-18T16:59:11;24.42;;;10.30;;
22922;SDS011;11627;51.322;22.816;2022-12-18T17:01:38;25.85;;;9.48;;
22922;SDS011;11627;51.322;22.816;2022-12-18T17:04:22;25.60;;;10.30;;
22922;SDS011;11627;51.322;22.816;2022-12-18T17:06:49;30.90;;;11.43;;